Time;durP1;ratioP1;P1;durP2;ratioP2;P2;SDS_P1;SDS_P2;PMS_P1;PMS_P2;Temp;Humidity;BMP_temperature;BMP_pressure;BME280_temperature;BME280_humidity;BME280_pressure;Samples;Min_cycle;Max_cycle;Signal;HPM_P1;HPM_P2
2024/01/25 00:01:39;;;;;;;42.05;6.32;;;;;;;;;;4951595;28;20412;-62
2024/01/25 00:04:04;;;;;;;30.80;3.97;;;;;;;;;;4967214;28;20027;-61
2024/01/25 00:06:29;;;;;;;35.05;5.35;;;;;;;;;;4966766;28;20058;-61
2024/01/25 00:08:55;;;;;;;36.75;5.18;;;;;;;;;;4965592;28;20130;-62
2024/01/25 00:11:20;;;;;;;37.78;5.40;;;;;;;;;;4966395;28;20031;-61
2024/01/25 00:13:45;;;;;;;34.25;4.88;;;;;;;;;;4949219;28;20428;-61
2024/01/25 00:16:11;;;;;;;28.88;4.68;;;;;;;;;;4966167;28;20030;-62
2024/01/25 00:18:36;;;;;;;43.10;4.88;;;;;;;;;;4967315;28;20019;-61
2024/01/25 00:21:01;;;;;;;25.15;4.25;;;;;;;;;;4965996;28;20035;-62
2024/01/25 00:23:27;;;;;;;29.00;4.75;;;;;;;;;;4966619;28;20030;-62
2024/01/25 00:25:52;;;;;;;20.35;3.92;;;;;;;;;;4966362;28;20579;-62
2024/01/25 00:28:19;;;;;;;30.35;4.63;;;;;;;;;;4949119;28;20031;-62
2024/01/25 00:30:44;;;;;;;30.60;5.70;;;;;;;;;;4966806;28;20053;-62
2024/01/25 00:33:10;;;;;;;25.55;4.68;;;;;;;;;;4965993;28;20031;-62
2024/01/25 00:35:35;;;;;;;27.35;4.65;;;;;;;;;;4966751;28;20126;-62
2024/01/25 00:38:01;;;;;;;28.92;4.10;;;;;;;;;;4965387;28;20031;-62
2024/01/25 00:40:27;;;;;;;25.42;4.53;;;;;;;;;;4966199;28;20030;-62
2024/01/25 00:42:53;;;;;;;38.80;4.70;;;;;;;;;;4950144;28;20099;-62
2024/01/25 00:45:22;;;;;;;36.70;5.10;;;;;;;;;;4928216;29;20066;-62
2024/01/25 00:47:48;;;;;;;32.13;5.50;;;;;;;;;;4927656;29;20036;-62
2024/01/25 00:50:17;;;;;;;30.10;5.57;;;;;;;;;;4927507;29;20042;-62
2024/01/25 00:52:43;;;;;;;37.40;6.63;;;;;;;;;;4927133;29;20060;-62
2024/01/25 00:55:09;;;;;;;27.73;5.13;;;;;;;;;;4926684;29;20027;-61
2024/01/25 00:57:35;;;;;;;33.88;4.00;;;;;;;;;;4928255;29;20028;-62
2024/01/25 01:00:00;;;;;;;34.08;4.05;;;;;;;;;;4931333;28;20816;-61
2024/01/25 01:02:30;;;;;;;26.48;4.20;;;;;;;;;;4965330;28;20534;-61
2024/01/25 01:04:59;;;;;;;29.02;4.15;;;;;;;;;;4965543;28;20572;-61
2024/01/25 01:07:25;;;;;;;25.52;4.15;;;;;;;;;;4965016;28;20054;-62
2024/01/25 01:09:50;;;;;;;33.30;5.55;;;;;;;;;;4966304;28;20026;-62
2024/01/25 01:12:16;;;;;;;29.83;4.20;;;;;;;;;;4964022;28;20100;-62
2024/01/25 01:14:42;;;;;;;30.38;4.35;;;;;;;;;;4965824;28;20155;-61
2024/01/25 01:17:07;;;;;;;30.88;4.20;;;;;;;;;;4965289;28;20145;-62
2024/01/25 01:19:32;;;;;;;30.20;4.80;;;;;;;;;;4965426;28;20031;-61
2024/01/25 01:21:58;;;;;;;32.42;4.53;;;;;;;;;;4965649;28;20474;-62
2024/01/25 01:24:23;;;;;;;38.97;4.70;;;;;;;;;;4966124;28;20105;-62
2024/01/25 01:26:50;;;;;;;27.42;4.30;;;;;;;;;;4964705;28;20038;-61
2024/01/25 01:29:15;;;;;;;24.88;4.43;;;;;;;;;;4947961;28;20045;-61
2024/01/25 01:31:41;;;;;;;24.33;4.13;;;;;;;;;;4965050;28;20034;-62
2024/01/25 01:34:06;;;;;;;21.60;3.33;;;;;;;;;;4964944;28;20551;-61
2024/01/25 01:36:32;;;;;;;21.88;3.78;;;;;;;;;;4927445;28;20561;-62
2024/01/25 01:38:57;;;;;;;18.20;3.40;;;;;;;;;;4926825;29;20035;-62
2024/01/25 01:41:22;;;;;;;20.30;3.58;;;;;;;;;;4926148;29;20032;-62
2024/01/25 01:43:52;;;;;;;17.02;2.92;;;;;;;;;;4927094;29;20035;-62
2024/01/25 01:46:26;;;;;;;33.72;4.05;;;;;;;;;;4926066;29;20055;-62
2024/01/25 01:48:51;;;;;;;24.75;3.95;;;;;;;;;;4909721;29;20036;-62
2024/01/25 01:51:17;;;;;;;19.52;3.40;;;;;;;;;;4925780;29;20045;-61
2024/01/25 01:53:42;;;;;;;12.65;2.83;;;;;;;;;;4925953;29;20032;-62
2024/01/25 01:56:09;;;;;;;20.40;3.65;;;;;;;;;;4925950;29;20122;-62
2024/01/25 01:58:34;;;;;;;29.15;4.32;;;;;;;;;;4926365;29;20039;-62
2024/01/25 02:01:02;;;;;;;26.90;3.85;;;;;;;;;;4935124;28;20050;-62
2024/01/25 02:03:27;;;;;;;17.20;3.47;;;;;;;;;;4930575;28;20020;-62
2024/01/25 02:05:53;;;;;;;21.67;3.58;;;;;;;;;;4926512;28;20051;-61
2024/01/25 02:08:18;;;;;;;21.17;3.65;;;;;;;;;;4964112;28;20031;-62
2024/01/25 02:10:44;;;;;;;22.60;3.85;;;;;;;;;;4964301;28;20042;-62
2024/01/25 02:13:09;;;;;;;24.60;3.78;;;;;;;;;;4964521;28;20089;-62
2024/01/25 02:15:34;;;;;;;24.98;3.97;;;;;;;;;;4965043;28;20121;-62
2024/01/25 02:18:00;;;;;;;22.83;3.55;;;;;;;;;;4964300;28;20125;-62
2024/01/25 02:20:25;;;;;;;24.13;3.60;;;;;;;;;;4964067;28;20118;-62
2024/01/25 02:22:51;;;;;;;23.77;3.15;;;;;;;;;;4964935;28;20047;-62
2024/01/25 02:25:16;;;;;;;22.73;3.42;;;;;;;;;;4963644;28;20102;-62
2024/01/25 02:27:41;;;;;;;17.17;3.20;;;;;;;;;;4964763;28;20022;-62
2024/01/25 02:30:07;;;;;;;29.52;4.68;;;;;;;;;;4964242;28;20117;-62
2024/01/25 02:32:33;;;;;;;34.25;5.50;;;;;;;;;;4964077;28;20035;-62
2024/01/25 02:34:59;;;;;;;20.63;4.00;;;;;;;;;;4963706;28;20035;-62
2024/01/25 02:37:24;;;;;;;20.80;3.72;;;;;;;;;;4964368;28;20765;-62
2024/01/25 02:39:50;;;;;;;22.88;4.05;;;;;;;;;;4964588;28;20034;-62
2024/01/25 02:42:16;;;;;;;25.67;3.72;;;;;;;;;;4963931;28;20110;-62
2024/01/25 02:44:42;;;;;;;26.17;3.65;;;;;;;;;;4945555;28;20521;-62
2024/01/25 02:47:07;;;;;;;21.15;3.65;;;;;;;;;;4964088;28;20045;-61
2024/01/25 02:49:33;;;;;;;21.75;3.58;;;;;;;;;;4964452;28;20614;-62
2024/01/25 02:51:58;;;;;;;24.08;3.08;;;;;;;;;;4960479;28;20543;-62
2024/01/25 02:54:23;;;;;;;18.80;3.38;;;;;;;;;;4906412;29;20024;-62
2024/01/25 02:56:49;;;;;;;17.88;3.45;;;;;;;;;;4905880;29;20044;-61
2024/01/25 02:59:14;;;;;;;17.35;3.33;;;;;;;;;;4915839;29;20512;-61
2024/01/25 03:01:44;;;;;;;25.95;3.03;;;;;;;;;;4946821;28;20412;-62
2024/01/25 03:04:10;;;;;;;21.85;4.25;;;;;;;;;;4947613;28;20515;-62
2024/01/25 03:06:35;;;;;;;20.63;3.15;;;;;;;;;;4948824;29;20055;-62
2024/01/25 03:09:01;;;;;;;22.13;3.55;;;;;;;;;;4948529;29;20091;-62
2024/01/25 03:11:26;;;;;;;11.77;2.88;;;;;;;;;;4948215;29;20437;-63
2024/01/25 03:13:51;;;;;;;19.17;3.35;;;;;;;;;;4948797;29;20073;-61
2024/01/25 03:16:16;;;;;;;21.20;3.38;;;;;;;;;;4948058;29;20023;-62
2024/01/25 03:18:42;;;;;;;20.25;4.22;;;;;;;;;;4948569;29;20086;-61
2024/01/25 03:21:07;;;;;;;27.00;3.88;;;;;;;;;;4948260;29;20035;-62
2024/01/25 03:23:32;;;;;;;19.67;3.35;;;;;;;;;;4947964;29;20036;-61
2024/01/25 03:25:58;;;;;;;27.55;4.03;;;;;;;;;;4948120;29;20043;-61
2024/01/25 03:28:23;;;;;;;19.08;3.92;;;;;;;;;;4947966;29;20174;-61
2024/01/25 03:30:49;;;;;;;23.35;4.05;;;;;;;;;;4947467;29;20203;-61
2024/01/25 03:33:14;;;;;;;21.52;3.63;;;;;;;;;;4948291;29;20063;-61
2024/01/25 03:35:39;;;;;;;23.05;3.78;;;;;;;;;;4940375;29;20425;-61
2024/01/25 03:38:05;;;;;;;20.20;3.40;;;;;;;;;;4928879;29;20161;-62
2024/01/25 03:40:30;;;;;;;9.43;2.85;;;;;;;;;;4928667;29;20036;-62
2024/01/25 03:42:55;;;;;;;19.27;3.40;;;;;;;;;;4929320;29;20051;-61
2024/01/25 03:45:21;;;;;;;18.35;2.67;;;;;;;;;;4928479;29;20102;-61
2024/01/25 03:47:46;;;;;;;18.67;3.75;;;;;;;;;;4928558;29;20066;-61
2024/01/25 03:50:11;;;;;;;26.08;3.92;;;;;;;;;;4928914;29;20521;-62
2024/01/25 03:52:37;;;;;;;20.95;3.28;;;;;;;;;;4928406;29;20039;-61
2024/01/25 03:55:03;;;;;;;21.10;3.63;;;;;;;;;;4926787;29;20038;-60
2024/01/25 03:57:28;;;;;;;23.80;4.55;;;;;;;;;;4929290;29;20591;-62
2024/01/25 03:59:53;;;;;;;19.10;3.33;;;;;;;;;;4937050;29;20058;-61
2024/01/25 04:02:19;;;;;;;19.90;3.65;;;;;;;;;;4947957;28;20062;-62
2024/01/25 04:04:44;;;;;;;19.20;3.78;;;;;;;;;;4947174;28;20047;-61
2024/01/25 04:07:09;;;;;;;18.55;2.97;;;;;;;;;;4947384;29;20035;-62
2024/01/25 04:09:35;;;;;;;23.08;4.90;;;;;;;;;;4947853;29;20027;-62
2024/01/25 04:12:00;;;;;;;24.08;3.38;;;;;;;;;;4947087;28;20036;-62
2024/01/25 04:14:25;;;;;;;22.50;3.15;;;;;;;;;;4943493;29;20050;-61
2024/01/25 04:16:51;;;;;;;13.38;3.38;;;;;;;;;;4926521;29;20802;-61
2024/01/25 04:19:16;;;;;;;25.98;4.00;;;;;;;;;;4928070;29;20035;-62
2024/01/25 04:21:41;;;;;;;44.28;4.13;;;;;;;;;;4928172;29;20030;-62
2024/01/25 04:24:07;;;;;;;19.77;3.95;;;;;;;;;;4927725;29;20043;-61
2024/01/25 04:26:32;;;;;;;22.95;3.65;;;;;;;;;;4939627;29;20043;-62
2024/01/25 04:28:57;;;;;;;33.53;4.07;;;;;;;;;;4947206;28;20453;-61
2024/01/25 04:31:23;;;;;;;20.30;3.47;;;;;;;;;;4943393;28;20036;-62
2024/01/25 04:33:48;;;;;;;12.95;3.25;;;;;;;;;;4911073;29;20040;-62
2024/01/25 04:36:14;;;;;;;18.83;3.67;;;;;;;;;;4909271;29;20075;-61
2024/01/25 04:38:39;;;;;;;17.58;3.63;;;;;;;;;;4908375;29;20052;-62
2024/01/25 04:41:05;;;;;;;19.35;3.38;;;;;;;;;;4908714;29;20582;-61
2024/01/25 04:43:36;;;;;;;27.35;4.32;;;;;;;;;;4908691;29;20557;-61
2024/01/25 04:46:01;;;;;;;22.70;3.65;;;;;;;;;;4908119;29;20032;-61
2024/01/25 04:48:26;;;;;;;18.00;3.65;;;;;;;;;;4909101;29;20087;-62
2024/01/25 04:50:52;;;;;;;16.67;4.47;;;;;;;;;;4908500;29;20130;-61
2024/01/25 04:53:17;;;;;;;23.85;4.10;;;;;;;;;;4907902;29;20051;-62
2024/01/25 04:55:43;;;;;;;19.45;4.55;;;;;;;;;;4908305;29;20514;-62
2024/01/25 04:58:08;;;;;;;26.88;4.60;;;;;;;;;;4908554;29;20111;-61
2024/01/25 05:00:33;;;;;;;35.00;4.35;;;;;;;;;;4939655;29;20479;-61
2024/01/25 05:02:59;;;;;;;22.52;4.10;;;;;;;;;;4946296;28;20031;-61
2024/01/25 05:05:24;;;;;;;17.63;3.95;;;;;;;;;;4946410;29;20182;-62
2024/01/25 05:07:49;;;;;;;18.85;4.10;;;;;;;;;;4946285;29;20035;-62
2024/01/25 05:10:15;;;;;;;29.00;4.68;;;;;;;;;;4946341;29;20035;-62
2024/01/25 05:12:40;;;;;;;16.17;4.00;;;;;;;;;;4929253;29;20037;-61
2024/01/25 05:15:06;;;;;;;16.30;4.35;;;;;;;;;;4946803;29;20070;-61
2024/01/25 05:17:31;;;;;;;25.25;5.20;;;;;;;;;;4946056;29;20050;-62
2024/01/25 05:19:57;;;;;;;19.23;3.80;;;;;;;;;;4946519;29;20539;-61
2024/01/25 05:22:23;;;;;;;23.80;4.30;;;;;;;;;;4946151;29;20512;-61
2024/01/25 05:24:48;;;;;;;32.47;4.32;;;;;;;;;;4946466;28;20035;-62
2024/01/25 05:27:13;;;;;;;30.88;4.15;;;;;;;;;;4928550;29;20109;-61
2024/01/25 05:29:39;;;;;;;34.95;5.20;;;;;;;;;;4946273;29;20495;-61
2024/01/25 05:32:04;;;;;;;27.10;5.00;;;;;;;;;;4945694;29;20129;-61
2024/01/25 05:34:29;;;;;;;18.52;3.85;;;;;;;;;;4946411;29;20035;-61
2024/01/25 05:36:55;;;;;;;24.40;4.90;;;;;;;;;;4945667;29;20119;-60
2024/01/25 05:39:20;;;;;;;32.70;4.47;;;;;;;;;;4946270;29;20113;-61
2024/01/25 05:41:46;;;;;;;24.08;4.28;;;;;;;;;;4945642;29;20096;-60
2024/01/25 05:44:12;;;;;;;19.02;4.07;;;;;;;;;;4945641;29;20039;-61
2024/01/25 05:46:38;;;;;;;20.90;4.68;;;;;;;;;;4946127;29;20203;-61
2024/01/25 05:49:03;;;;;;;23.40;4.63;;;;;;;;;;4945276;29;20599;-61
2024/01/25 05:51:28;;;;;;;14.38;3.35;;;;;;;;;;4943972;29;20026;-60
2024/01/25 05:53:54;;;;;;;25.25;4.50;;;;;;;;;;4945773;29;20054;-62
2024/01/25 05:56:19;;;;;;;29.02;5.20;;;;;;;;;;4944831;29;20042;-62
2024/01/25 05:58:44;;;;;;;28.45;4.85;;;;;;;;;;4945450;29;20089;-62
2024/01/25 06:01:10;;;;;;;28.40;5.60;;;;;;;;;;4945186;28;20449;-61
2024/01/25 06:03:35;;;;;;;34.10;6.20;;;;;;;;;;4945587;29;20023;-61
2024/01/25 06:06:00;;;;;;;22.90;4.72;;;;;;;;;;4940089;28;20054;-61
2024/01/25 06:08:26;;;;;;;35.80;5.22;;;;;;;;;;4945440;29;20105;-61
2024/01/25 06:10:51;;;;;;;22.85;5.53;;;;;;;;;;4944954;29;20035;-62
2024/01/25 06:13:16;;;;;;;49.13;4.85;;;;;;;;;;4945112;29;20035;-61
2024/01/25 06:15:42;;;;;;;23.23;4.95;;;;;;;;;;4945896;29;20074;-62
2024/01/25 06:18:07;;;;;;;26.63;5.00;;;;;;;;;;4945338;29;20077;-62
2024/01/25 06:20:32;;;;;;;29.10;5.25;;;;;;;;;;4944731;29;20093;-61
2024/01/25 06:22:58;;;;;;;58.35;6.10;;;;;;;;;;4945356;29;20043;-62
2024/01/25 06:25:23;;;;;;;137.98;6.93;;;;;;;;;;4945110;29;20508;-61
2024/01/25 06:27:48;;;;;;;29.88;4.95;;;;;;;;;;4945837;29;20023;-62
2024/01/25 06:30:14;;;;;;;58.00;5.47;;;;;;;;;;4944662;29;20089;-62
2024/01/25 06:32:39;;;;;;;24.50;5.05;;;;;;;;;;4945239;29;20035;-62
2024/01/25 06:35:05;;;;;;;25.33;5.13;;;;;;;;;;4945268;29;20098;-61
2024/01/25 06:37:31;;;;;;;23.50;5.28;;;;;;;;;;4945071;29;20086;-61
2024/01/25 06:39:56;;;;;;;25.33;5.68;;;;;;;;;;4944924;29;20031;-61
2024/01/25 06:42:21;;;;;;;20.85;5.15;;;;;;;;;;4945764;29;20078;-62
2024/01/25 06:44:47;;;;;;;23.60;5.53;;;;;;;;;;4942916;29;20047;-62
2024/01/25 06:47:14;;;;;;;25.52;5.32;;;;;;;;;;4945156;29;20051;-62
2024/01/25 06:49:39;;;;;;;24.88;5.72;;;;;;;;;;4928566;29;20109;-61
2024/01/25 06:52:05;;;;;;;20.52;5.47;;;;;;;;;;4915078;29;20709;-61
2024/01/25 06:54:31;;;;;;;19.35;4.75;;;;;;;;;;4906336;29;20032;-61
2024/01/25 06:56:56;;;;;;;34.92;5.15;;;;;;;;;;4907289;29;20064;-62
2024/01/25 06:59:22;;;;;;;26.98;4.88;;;;;;;;;;4918218;29;20394;-61
2024/01/25 07:01:47;;;;;;;16.67;4.72;;;;;;;;;;4944667;28;20633;-61
2024/01/25 07:04:12;;;;;;;20.48;5.00;;;;;;;;;;4945238;28;20058;-62
2024/01/25 07:06:38;;;;;;;22.60;6.13;;;;;;;;;;4944602;29;20261;-61
2024/01/25 07:09:03;;;;;;;25.63;4.82;;;;;;;;;;4944835;29;20050;-61
2024/01/25 07:11:29;;;;;;;28.83;5.45;;;;;;;;;;4944601;29;20122;-62
2024/01/25 07:13:54;;;;;;;27.05;6.45;;;;;;;;;;4944406;29;20047;-61
2024/01/25 07:16:20;;;;;;;33.15;7.30;;;;;;;;;;4944853;29;20083;-61
2024/01/25 07:18:46;;;;;;;35.38;6.82;;;;;;;;;;4945364;29;20034;-62
2024/01/25 07:21:11;;;;;;;33.03;7.25;;;;;;;;;;4944615;29;20066;-61
2024/01/25 07:23:36;;;;;;;37.50;6.55;;;;;;;;;;4948327;29;20780;-61
2024/01/25 07:26:02;;;;;;;27.77;6.00;;;;;;;;;;4949307;29;20031;-61
2024/01/25 07:28:27;;;;;;;27.25;6.07;;;;;;;;;;4929922;29;20469;-61
2024/01/25 07:30:52;;;;;;;37.35;6.97;;;;;;;;;;4925518;29;20520;-61
2024/01/25 07:33:18;;;;;;;39.80;5.68;;;;;;;;;;4945509;29;20102;-61
2024/01/25 07:35:46;;;;;;;37.05;7.60;;;;;;;;;;4945381;29;20119;-61
2024/01/25 07:38:12;;;;;;;40.10;9.52;;;;;;;;;;4944063;29;20079;-61
2024/01/25 07:40:37;;;;;;;42.67;6.85;;;;;;;;;;4912180;29;20119;-62
2024/01/25 07:43:03;;;;;;;27.50;10.57;;;;;;;;;;4925203;29;20036;-61
2024/01/25 07:45:28;;;;;;;30.65;6.55;;;;;;;;;;4925879;29;20051;-61
2024/01/25 07:47:54;;;;;;;39.20;12.18;;;;;;;;;;4925952;29;20099;-61
2024/01/25 07:50:19;;;;;;;37.63;7.32;;;;;;;;;;4929388;29;20440;-61
2024/01/25 07:52:44;;;;;;;41.10;8.88;;;;;;;;;;4929331;29;20067;-61
2024/01/25 07:55:10;;;;;;;24.17;5.60;;;;;;;;;;4929328;29;20408;-61
2024/01/25 07:57:35;;;;;;;33.80;7.10;;;;;;;;;;4929994;29;20512;-61
2024/01/25 08:00:01;;;;;;;32.00;8.30;;;;;;;;;;4940006;29;20432;-61
2024/01/25 08:02:26;;;;;;;33.05;5.65;;;;;;;;;;4948114;28;20035;-62
2024/01/25 08:04:52;;;;;;;34.35;7.95;;;;;;;;;;4948069;28;20908;-62
2024/01/25 08:07:18;;;;;;;31.08;7.97;;;;;;;;;;4946036;29;20278;-61
2024/01/25 08:09:43;;;;;;;28.13;7.53;;;;;;;;;;4937425;29;20023;-62
2024/01/25 08:12:08;;;;;;;43.05;9.25;;;;;;;;;;4940521;29;20046;-62
2024/01/25 08:14:34;;;;;;;30.10;5.80;;;;;;;;;;4947102;29;20043;-62
2024/01/25 08:17:00;;;;;;;33.58;8.68;;;;;;;;;;4936002;29;20043;-61
2024/01/25 08:19:25;;;;;;;35.45;7.60;;;;;;;;;;4928043;29;20550;-61
2024/01/25 08:21:50;;;;;;;35.92;9.02;;;;;;;;;;4922183;29;21076;-61
2024/01/25 08:24:16;;;;;;;30.73;7.00;;;;;;;;;;4910254;29;20718;-61
2024/01/25 08:26:41;;;;;;;49.97;6.15;;;;;;;;;;4908875;29;20466;-61
2024/01/25 08:29:06;;;;;;;37.22;8.20;;;;;;;;;;4910153;29;20154;-62
2024/01/25 08:31:32;;;;;;;33.88;7.85;;;;;;;;;;4910747;29;20131;-61
2024/01/25 08:33:57;;;;;;;33.20;8.85;;;;;;;;;;4911536;29;20068;-61
2024/01/25 08:36:22;;;;;;;28.52;7.18;;;;;;;;;;4910179;29;20048;-63
2024/01/25 08:38:48;;;;;;;28.02;8.60;;;;;;;;;;4909297;29;20040;-61
2024/01/25 08:41:15;;;;;;;34.58;9.27;;;;;;;;;;4921890;29;20048;-61
2024/01/25 08:43:40;;;;;;;29.70;8.90;;;;;;;;;;4916322;29;20513;-61
2024/01/25 08:46:06;;;;;;;35.65;11.95;;;;;;;;;;4948506;29;20531;-61
2024/01/25 08:48:31;;;;;;;34.75;11.15;;;;;;;;;;4947590;28;20587;-61
2024/01/25 08:50:56;;;;;;;25.98;7.20;;;;;;;;;;4933265;28;20067;-61
2024/01/25 08:53:26;;;;;;;30.65;8.25;;;;;;;;;;4906192;29;20107;-62
2024/01/25 08:55:52;;;;;;;25.23;9.60;;;;;;;;;;4920354;29;20040;-61
2024/01/25 08:58:17;;;;;;;23.02;7.78;;;;;;;;;;4928200;29;20046;-61
2024/01/25 09:00:43;;;;;;;23.15;7.03;;;;;;;;;;4912897;29;20074;-61
2024/01/25 09:03:08;;;;;;;18.10;7.00;;;;;;;;;;4919575;29;20051;-61
2024/01/25 09:05:38;;;;;;;23.52;8.10;;;;;;;;;;4927552;29;20060;-61
2024/01/25 09:08:03;;;;;;;18.42;6.70;;;;;;;;;;4929631;29;20051;-61
2024/01/25 09:10:29;;;;;;;20.65;6.72;;;;;;;;;;4920536;29;20055;-62
2024/01/25 09:12:54;;;;;;;18.33;6.05;;;;;;;;;;4911179;29;20048;-62
2024/01/25 09:15:19;;;;;;;18.05;6.10;;;;;;;;;;4916442;29;20080;-61
2024/01/25 09:17:45;;;;;;;22.10;5.65;;;;;;;;;;4912126;29;20082;-61
2024/01/25 09:20:10;;;;;;;15.93;5.55;;;;;;;;;;4913390;29;20063;-62
2024/01/25 09:22:36;;;;;;;25.80;12.02;;;;;;;;;;4917182;29;20136;-61
2024/01/25 09:25:01;;;;;;;20.05;7.50;;;;;;;;;;4927922;29;20560;-61
2024/01/25 09:27:27;;;;;;;12.30;5.30;;;;;;;;;;4926180;29;20040;-61
2024/01/25 09:29:52;;;;;;;24.20;6.53;;;;;;;;;;4927265;29;20052;-61
2024/01/25 09:32:20;;;;;;;23.70;7.45;;;;;;;;;;4929076;29;20055;-61
2024/01/25 09:34:45;;;;;;;21.55;7.20;;;;;;;;;;4911779;29;20511;-61
2024/01/25 09:37:11;;;;;;;18.00;5.97;;;;;;;;;;4927150;29;20032;-61
2024/01/25 09:39:36;;;;;;;16.75;6.13;;;;;;;;;;4927932;29;20578;-61
2024/01/25 09:42:04;;;;;;;29.10;6.00;;;;;;;;;;4927671;29;20537;-61
2024/01/25 09:44:29;;;;;;;20.10;6.70;;;;;;;;;;4926929;29;20039;-61
2024/01/25 09:46:55;;;;;;;20.42;6.75;;;;;;;;;;4927156;29;20047;-61
2024/01/25 09:49:21;;;;;;;17.73;5.93;;;;;;;;;;4927175;29;20031;-61
2024/01/25 09:51:48;;;;;;;20.48;6.97;;;;;;;;;;4943693;28;20089;-61
2024/01/25 09:54:14;;;;;;;26.13;6.60;;;;;;;;;;4926549;28;20047;-60
2024/01/25 09:56:41;;;;;;;28.70;6.40;;;;;;;;;;4927438;29;20050;-61
2024/01/25 09:59:07;;;;;;;25.90;6.38;;;;;;;;;;4927039;29;20035;-61
2024/01/25 10:01:34;;;;;;;18.23;6.55;;;;;;;;;;4943609;29;20254;-61
2024/01/25 10:03:59;;;;;;;25.58;6.30;;;;;;;;;;4946266;29;20572;-61
2024/01/25 10:06:25;;;;;;;24.70;6.65;;;;;;;;;;4945670;29;20039;-61
2024/01/25 10:08:52;;;;;;;26.15;7.00;;;;;;;;;;4946603;29;20138;-62
2024/01/25 10:11:18;;;;;;;21.75;5.70;;;;;;;;;;4944058;28;20187;-62
2024/01/25 10:13:45;;;;;;;28.92;7.03;;;;;;;;;;4945539;29;20433;-62
2024/01/25 10:16:12;;;;;;;26.02;7.50;;;;;;;;;;4946078;29;20041;-62
2024/01/25 10:18:38;;;;;;;26.10;8.20;;;;;;;;;;4945805;29;20603;-62
2024/01/25 10:21:03;;;;;;;26.60;7.65;;;;;;;;;;4945358;29;20575;-62
2024/01/25 10:23:29;;;;;;;32.88;8.40;;;;;;;;;;4946217;29;20045;-62
2024/01/25 10:25:56;;;;;;;30.50;7.40;;;;;;;;;;4945232;29;20043;-62
2024/01/25 10:28:23;;;;;;;29.42;8.38;;;;;;;;;;4908887;29;20036;-62
2024/01/25 10:30:50;;;;;;;32.80;7.95;;;;;;;;;;4907876;29;20024;-62
2024/01/25 10:33:16;;;;;;;25.35;6.85;;;;;;;;;;4907759;29;20052;-61
2024/01/25 10:35:45;;;;;;;29.17;7.97;;;;;;;;;;4907452;29;20757;-62
2024/01/25 10:38:11;;;;;;;25.65;7.43;;;;;;;;;;4907740;29;20044;-62
2024/01/25 10:40:37;;;;;;;28.15;7.85;;;;;;;;;;4907392;29;20116;-61
2024/01/25 10:43:02;;;;;;;37.97;9.35;;;;;;;;;;4908013;29;20055;-62
2024/01/25 10:45:27;;;;;;;31.23;9.38;;;;;;;;;;4907336;29;20123;-61
2024/01/25 10:47:53;;;;;;;33.58;8.30;;;;;;;;;;4907662;29;20062;-61
2024/01/25 10:50:18;;;;;;;20.83;6.43;;;;;;;;;;4907784;29;20043;-61
2024/01/25 10:52:44;;;;;;;34.47;10.10;;;;;;;;;;4907223;29;20115;-61
2024/01/25 10:55:11;;;;;;;23.90;7.38;;;;;;;;;;4907860;29;20050;-61
2024/01/25 10:57:43;;;;;;;28.60;7.68;;;;;;;;;;4908020;29;20496;-62
2024/01/25 11:00:11;;;;;;;25.42;6.97;;;;;;;;;;4931135;29;20067;-62
2024/01/25 11:02:39;;;;;;;21.58;6.50;;;;;;;;;;4945372;28;20071;-62
2024/01/25 11:05:23;;;;;;;31.13;6.25;;;;;;;;;;4945106;28;20047;-62
2024/01/25 11:07:50;;;;;;;24.40;6.63;;;;;;;;;;4945414;29;20089;-62
2024/01/25 11:10:19;;;;;;;34.28;9.15;;;;;;;;;;4945181;29;20036;-62
2024/01/25 11:12:58;;;;;;;27.13;7.20;;;;;;;;;;4946094;29;20081;-62
2024/01/25 11:15:29;;;;;;;26.83;6.95;;;;;;;;;;4945396;29;20035;-62
2024/01/25 11:17:55;;;;;;;33.25;7.63;;;;;;;;;;4944813;29;20047;-61
2024/01/25 11:20:23;;;;;;;22.83;5.82;;;;;;;;;;4945597;29;20035;-61
2024/01/25 11:22:48;;;;;;;22.52;5.53;;;;;;;;;;4947009;28;20114;-61
2024/01/25 11:25:20;;;;;;;25.48;6.40;;;;;;;;;;4949124;29;20035;-62
2024/01/25 11:27:46;;;;;;;27.13;6.68;;;;;;;;;;4949370;29;20057;-62
2024/01/25 11:30:13;;;;;;;27.83;7.85;;;;;;;;;;4948750;29;20071;-62
2024/01/25 11:32:39;;;;;;;25.65;7.03;;;;;;;;;;4931250;29;20306;-62
2024/01/25 11:35:05;;;;;;;35.13;7.45;;;;;;;;;;4948430;29;20050;-62
2024/01/25 11:37:30;;;;;;;17.70;5.40;;;;;;;;;;4948636;29;20023;-61
2024/01/25 11:39:55;;;;;;;23.98;6.85;;;;;;;;;;4936932;29;20055;-62
2024/01/25 11:42:21;;;;;;;19.40;5.38;;;;;;;;;;4923694;29;20129;-62
2024/01/25 11:44:47;;;;;;;18.48;6.20;;;;;;;;;;4918091;29;20052;-62
2024/01/25 11:47:12;;;;;;;22.35;6.38;;;;;;;;;;4911591;29;20036;-61
2024/01/25 11:49:39;;;;;;;18.02;6.03;;;;;;;;;;4910689;29;20134;-61
2024/01/25 11:52:05;;;;;;;18.02;6.07;;;;;;;;;;4927360;29;20501;-62
2024/01/25 11:54:30;;;;;;;16.88;5.60;;;;;;;;;;4929216;29;20039;-62
2024/01/25 11:56:56;;;;;;;20.55;5.70;;;;;;;;;;4936583;29;20058;-61
2024/01/25 11:59:21;;;;;;;25.77;6.35;;;;;;;;;;4935187;29;20039;-61
2024/01/25 12:01:47;;;;;;;16.17;6.13;;;;;;;;;;4936329;29;20482;-62
2024/01/25 12:04:12;;;;;;;23.45;6.53;;;;;;;;;;4909922;29;20035;-61
2024/01/25 12:06:38;;;;;;;18.13;6.75;;;;;;;;;;4929117;29;20051;-62
2024/01/25 12:09:10;;;;;;;22.70;6.53;;;;;;;;;;4930693;29;20108;-61
2024/01/25 12:11:36;;;;;;;16.58;6.57;;;;;;;;;;4922792;29;20537;-62
2024/01/25 12:14:01;;;;;;;17.20;6.95;;;;;;;;;;4936644;29;20081;-61
2024/01/25 12:16:26;;;;;;;16.10;5.20;;;;;;;;;;4925059;29;20110;-62
2024/01/25 12:18:53;;;;;;;17.60;6.22;;;;;;;;;;4914848;29;20759;-61
2024/01/25 12:21:19;;;;;;;7.85;4.13;;;;;;;;;;4924472;29;20044;-62
2024/01/25 12:23:44;;;;;;;12.40;5.13;;;;;;;;;;4922334;29;20044;-62
2024/01/25 12:26:10;;;;;;;19.15;5.63;;;;;;;;;;4920170;29;20051;-61
2024/01/25 12:28:37;;;;;;;12.27;5.13;;;;;;;;;;4913727;29;20039;-61
2024/01/25 12:31:04;;;;;;;12.15;5.28;;;;;;;;;;4925599;29;20047;-62
2024/01/25 12:33:30;;;;;;;15.00;5.20;;;;;;;;;;4908609;29;20044;-62
2024/01/25 12:35:55;;;;;;;16.10;4.93;;;;;;;;;;4917460;29;20053;-62
2024/01/25 12:38:25;;;;;;;14.02;5.40;;;;;;;;;;4943548;28;20047;-62
2024/01/25 12:40:50;;;;;;;10.70;4.28;;;;;;;;;;4945769;28;20660;-61
2024/01/25 12:43:16;;;;;;;16.48;5.78;;;;;;;;;;4937207;29;20055;-62
2024/01/25 12:45:42;;;;;;;11.75;5.55;;;;;;;;;;4911093;29;20036;-62
2024/01/25 12:48:08;;;;;;;10.63;4.63;;;;;;;;;;4907351;29;20631;-61
2024/01/25 12:50:34;;;;;;;9.68;4.85;;;;;;;;;;4910116;29;20639;-62
2024/01/25 12:53:01;;;;;;;12.45;4.40;;;;;;;;;;4927097;29;20543;-61
2024/01/25 12:55:27;;;;;;;8.93;4.25;;;;;;;;;;4928051;29;20031;-61
2024/01/25 12:57:53;;;;;;;7.72;4.18;;;;;;;;;;4926597;29;20030;-60
2024/01/25 13:00:18;;;;;;;8.30;3.70;;;;;;;;;;4913050;29;20511;-61
2024/01/25 13:02:43;;;;;;;11.48;4.97;;;;;;;;;;4909774;29;20048;-62
2024/01/25 13:05:09;;;;;;;8.63;3.95;;;;;;;;;;4914152;29;20063;-61
2024/01/25 13:07:34;;;;;;;10.15;4.50;;;;;;;;;;4908944;29;20557;-62
2024/01/25 13:09:59;;;;;;;8.27;3.42;;;;;;;;;;4911962;29;20607;-62
2024/01/25 13:12:25;;;;;;;11.27;4.43;;;;;;;;;;4915962;29;20040;-61
2024/01/25 13:14:50;;;;;;;13.90;4.80;;;;;;;;;;4913754;29;20040;-61
2024/01/25 13:17:16;;;;;;;8.57;4.20;;;;;;;;;;4909247;29;20127;-62
2024/01/25 13:19:41;;;;;;;11.20;4.43;;;;;;;;;;4908833;29;20056;-62
2024/01/25 13:22:06;;;;;;;13.20;4.47;;;;;;;;;;4908984;29;20028;-61
2024/01/25 13:24:31;;;;;;;16.70;5.20;;;;;;;;;;4908376;29;20422;-62
2024/01/25 13:26:57;;;;;;;9.38;4.43;;;;;;;;;;4908510;29;20039;-62
2024/01/25 13:29:22;;;;;;;11.80;4.78;;;;;;;;;;4908130;29;20430;-62
2024/01/25 13:31:48;;;;;;;10.10;4.72;;;;;;;;;;4908962;29;20048;-61
2024/01/25 13:34:13;;;;;;;13.25;4.93;;;;;;;;;;4909285;29;20028;-61
2024/01/25 13:36:38;;;;;;;10.63;5.47;;;;;;;;;;4912295;29;20174;-62
2024/01/25 13:39:04;;;;;;;9.57;4.82;;;;;;;;;;4908898;29;20056;-62
2024/01/25 13:41:29;;;;;;;11.43;4.70;;;;;;;;;;4908716;29;20118;-62
2024/01/25 13:43:54;;;;;;;12.07;4.55;;;;;;;;;;4907657;29;20046;-62
2024/01/25 13:46:20;;;;;;;9.43;4.85;;;;;;;;;;4907917;29;20035;-62
2024/01/25 13:48:45;;;;;;;10.95;4.82;;;;;;;;;;4908122;29;20039;-62
2024/01/25 13:51:12;;;;;;;9.40;4.15;;;;;;;;;;4908315;29;20046;-62
2024/01/25 13:53:37;;;;;;;8.70;4.43;;;;;;;;;;4908002;29;20044;-62
2024/01/25 13:56:03;;;;;;;10.50;4.45;;;;;;;;;;4908092;29;20035;-61
2024/01/25 13:58:28;;;;;;;10.73;4.65;;;;;;;;;;4908835;29;20028;-62
2024/01/25 14:00:54;;;;;;;7.60;4.05;;;;;;;;;;4943525;29;20066;-62
2024/01/25 14:03:19;;;;;;;8.60;4.38;;;;;;;;;;4946654;29;20130;-62
2024/01/25 14:05:45;;;;;;;10.30;4.50;;;;;;;;;;4946443;28;20131;-62
2024/01/25 14:08:10;;;;;;;10.93;4.40;;;;;;;;;;4940254;29;20027;-62
2024/01/25 14:10:36;;;;;;;11.52;4.60;;;;;;;;;;4910244;29;20043;-62
2024/01/25 14:13:01;;;;;;;11.35;5.25;;;;;;;;;;4945587;29;20027;-61
2024/01/25 14:15:27;;;;;;;11.68;5.07;;;;;;;;;;4945938;29;20038;-62
2024/01/25 14:17:52;;;;;;;13.10;5.22;;;;;;;;;;4946517;29;20042;-61
2024/01/25 14:20:18;;;;;;;11.77;5.13;;;;;;;;;;4946028;29;20086;-62
2024/01/25 14:22:43;;;;;;;11.90;5.50;;;;;;;;;;4945791;29;20027;-62